Tiempo atmosférico en la estación meteorológica de Sevilla Aeropuerto, Sevilla (34 m.)



Fecha
DESCASC
Temp. máxima en grados centígrados (hora)
DESCASC
Temp. mínima en grados centígrados (hora)
DESCASC
Temp. media en grados centígrados
DESCASC
Racha de viento máxima en m/sg (hora)
DESCASC
Velocidad máxima media en intervalos de 10 minutos(hora)
DESCASC
Precipitaciones diarias en mm
DESCASC
Precipitaciones de 00:00 a 06:00 en mm
DESCASC
Precipitaciones de 06:00 a 12:00 en mm
DESCASC
Precipitaciones de 12:00 a 18:00 en mm
DESCASC
Precipitaciones de 18:00 a 24:00 en mm
DESCASC
14-07-2019 32.7 (17:10) 19.8 (00:00) 26.3 12.5 (18:50) 9.17 (18:50) 0 0 0 0 0
13-07-2019 30.3 (16:10) 20.2 (00:00) 25.3 12.5 (20:00) 8.33 (20:10) 0 0 0 0 0
12-07-2019 33.1 (16:50) 22.5 (00:00) 27.8 10.83 (20:00) 7.5 (19:00) 0 0 0 0 0
11-07-2019 40.1 (17:10) 20.1 (00:00) 30.1 10.83 (14:20) 7.22 (18:50) 0 0 0 0 0
10-07-2019 37.8 (17:30) 17.5 (00:00) 27.6 12.5 (18:10) 8.89 (21:00) 0 0 0 0 0
09-07-2019 31.7 (17:10) 16.8 (00:00) 24.3 10.28 (20:00) 7.22 (19:30) 0 0 0 0 0
08-07-2019 27.7 (16:10) 17.4 (00:00) 22.6 12.78 (17:10) 10 (18:50) 0 0 0 0 0
07-07-2019 32.3 (16:10) 17.7 (00:00) 25 13.33 (18:10) 9.72 (19:20) 0 0 0 0 0
06-07-2019 32.6 (16:30) 16.3 (00:00) 24.4 12.5 (21:30) 8.06 (19:20) 0 0 0 0 0
05-07-2019 32.8 (16:50) 16.2 (00:00) 24.5 9.17 (19:20) 6.67 (19:20) 0 0 0 0 0
04-07-2019 28 (17:20) 17.9 (00:00) 22.9 10.28 (17:30) 6.11 (17:50) 0 0 0 0 0
03-07-2019 28.8 (17:00) 18.2 (00:00) 23.5 9.17 (15:00) 6.67 (20:30) 0 0 0 0 0
02-07-2019 30.9 (16:20) 18.2 (07:20) 24.6 10.28 (17:40) 7.22 (18:50) 0 0 0 0 0
01-07-2019 33.1 (17:00) 19.9 (03:50) 26.5 10.83 (18:20) 7.78 (19:20) 0 0 0 0 0
30-06-2019 30.5 (16:30) 20.8 (00:00) 25.6 11.39 (21:50) 8.33 (21:50) 0 0 0 0 0
29-06-2019 36.9 (17:30) 21.6 (00:00) 29.3 10.83 (19:10) 8.33 (20:10) 0 0 0 0 0
28-06-2019 35.9 (18:10) 19.3 (00:00) 27.6 9.17 (19:50) 6.94 (20:00) 0 0 0 0 0
27-06-2019 31.8 (18:30) 18.8 (00:00) 25.3 10.28 (16:00) 6.11 (21:50) 0 0 0 0 0
26-06-2019 32.1 (18:40) 19.5 (00:00) 25.8 9.17 (15:30) 6.67 (22:00) -- 0 -- 0 0
25-06-2019 32.8 (18:40) 17.9 (00:00) 25.3 8.89 (17:30) 6.39 (19:50) 0 0 0 0 0
24-06-2019 30.3 (17:10) 19.4 (00:00) 24.8 11.39 (18:00) 8.06 (18:50) 0 0 0 0 0
23-06-2019 33.1 (17:30) 16.3 (00:00) 24.7 9.72 (20:20) 7.5 (20:10) 0 0 0 0 0
22-06-2019 34.3 (17:00) 15.5 (00:00) 24.9 10.83 (18:50) 7.5 (19:20) 0 0 0 0 0
21-06-2019 32.8 (17:50) 15 (00:00) 23.9 9.72 (20:30) 7.22 (20:30) 0 0 0 0 0
20-06-2019 28.5 (15:50) 17.4 (00:00) 22.9 12.5 (17:40) 9.17 (18:50) 0 0 0 0 0
19-06-2019 31 (17:10) 18.1 (00:00) 24.6 11.67 (19:00) 8.61 (20:00) 0 0 0 0 0
18-06-2019 28.2 (17:30) 14.8 (00:00) 21.5 10.83 (15:50) 7.78 (19:40) 0 0 0 0 0
17-06-2019 31.2 (16:30) 13.6 (00:00) 22.4 9.72 (16:50) 6.67 (19:00) 0 0 0 0 0
16-06-2019 30.5 (16:40) 14.4 (00:00) 22.4 10.28 (18:40) 6.67 (18:50) 0 0 0 0 0

Gráficas

Temp. máximas Temp. mínimas Temp. medias Precipitaciones Rachas de viento máximas Velocidades máximas media en intervalos de 10 minutos

Datos horarios

Fecha y hora oficial Temperatura (ºC) Velocidad del viento (km/h) Dirección del viento Racha (km/h) Dirección de racha Precipitación (mm) Presión (hPa) Tendencia (hPa) Humedad (%)
2019-07-15 23:00:00 23.4 22 Sudoeste 32 Sur 0 1009.3 1.4 73
2019-07-15 22:00:00 25.3 22 Sudoeste 33 Sudoeste 0 1008.8 0.6 67
2019-07-15 21:00:00 27.9 23 Sudoeste 33 Sudoeste 0 1008.3 -0.2 56
2019-07-15 20:00:00 30.2 24 Sudoeste 32 Sudoeste 0 1007.9 -1 46
2019-07-15 19:00:00 30.9 22 Sudoeste 32 Sudoeste 0 1008.2 -1.2 40
2019-07-15 18:00:00 31.9 24 Sudoeste 33 Sudoeste 0 1008.5 -1.3 38
2019-07-15 17:00:00 32 21 Sudoeste 33 Oeste 0 1008.9 -1.5 39
2019-07-15 16:00:00 32.2 19 Sudoeste 30 Sudoeste 0 1009.4 -1.4 40
2019-07-15 15:00:00 31.4 18 Oeste 28 Oeste 0 1009.8 -1.1 41
2019-07-15 14:00:00 29.3 15 Sudoeste 28 Sudoeste 0 1010.4 -0.9 51
2019-07-15 13:00:00 28.1 15 Oeste 30 Oeste 0 1010.8 -0.6 57
2019-07-15 12:00:00 26.1 11 Sudoeste 21 Sudoeste 0 1010.9 -0.2 64
2019-07-15 11:00:00 24.4 13 Oeste 24 Sudoeste 0 1011.3 0.5 71
2019-07-15 10:00:00 22.8 10 Sudoeste 17 Oeste 0 1011.4 1.1 78
2019-07-15 09:00:00 20.9 8 Sudoeste 17 Oeste 0 1011.1 1 86
2019-07-15 08:00:00 19.9 9 Sudoeste 18 Sudoeste 0 1010.8 0.9 90
2019-07-15 07:00:00 20.2 9 Sudoeste 15 Oeste 0 1010.3 0.3 89
2019-07-15 06:00:00 20.5 10 Sudoeste 18 Sudoeste 0 1010.1 -0.2 88
2019-07-15 05:00:00 20.7 8 Sur 17 Sur 0 1009.9 -0.6 86
2019-07-15 04:00:00 21 9 Sur 17 Sudoeste 0 1010 -0.6 85
2019-07-15 03:00:00 21.1 12 Sudoeste 22 Sudoeste 0 1010.3 -0.1 85
2019-07-15 02:00:00 21.4 12 Sudoeste 22 Sudoeste 0 1010.5 0.5 83
2019-07-15 01:00:00 21.9 14 Sudoeste 26 Sudoeste 0 1010.6 1.2 82
2019-07-15 00:00:00 22.5 13 Sur 30 Sudoeste 0 1010.4 1.4 77
2019-07-14 23:00:00 23 19 Sudoeste 39 Sudoeste 0 1010 1.1 73
2019-07-14 22:00:00 24.5 26 Sudoeste 35 Sudoeste 0 1009.4 0.6 66
2019-07-14 21:00:00 26.5 26 Sudoeste 39 Sudoeste 0 1009 0.1 47
2019-07-14 20:00:00 28.4 30 Sudoeste 42 Sudoeste 0 1008.9 -0.5 51
2019-07-14 19:00:00 29.7 29 Sudoeste 45 Sudoeste 0 1008.8 -1.3 48
2019-07-14 18:00:00 31.9 26 Sudoeste 39 Sudoeste 0 1008.9 -1.8 40
2019-07-14 17:00:00 32 17 Sudoeste 32 Sudoeste 0 1009.4 -1.9 37
2019-07-14 16:00:00 31.3 15 Sudoeste 28 Sudoeste 0 1010.1 -1.5 37
2019-07-14 15:00:00 30.6 14 Sudoeste 28 Sudoeste 0 1010.7 -1.1 38
2019-07-14 14:00:00 29.2 12 Sudoeste 28 Oeste 0 1011.3 -0.6 41
2019-07-14 13:00:00 28.1 13 Sudoeste 24 Sudoeste 0 1011.6 -0.3 42
2019-07-14 12:00:00 26.7 9 Sudoeste 18 Sudoeste 0 1011.8 0.2 50
2019-07-14 11:00:00 24.9 6 Sur 13 Sur 0 1011.9 0.5 64
2019-07-14 10:00:00 22.7 3 Sudeste 11 Sur 0 1011.9 0.7 76
2019-07-14 09:00:00 20.8 3 Sur 11 Sur 0 1011.6 0.7 85
2019-07-14 08:00:00 20.1 6 Sur 11 Sur 0 1011.4 0.4 90
2019-07-14 07:00:00 19.8 9 Sudoeste 13 Sudoeste 0 1011.2 0 92
2019-07-14 06:00:00 19.9 9 Sudoeste 22 Sudoeste 0 1010.9 -0.7 90
2019-07-14 05:00:00 20.2 14 Sudoeste 24 Sudoeste 0 1011 -1.1 88
2019-07-14 04:00:00 20.4 13 Sudoeste 22 Sudoeste 0 1011.2 -1.1 86
2019-07-14 03:00:00 20.8 11 Sur 28 Sudoeste 0 1011.6 -0.8 85
2019-07-14 02:00:00 20.9 13 Sudoeste 26 Sudoeste 0 1012.1 0.2 83
2019-07-14 01:00:00 21.2 15 Sudoeste 28 Sudoeste 0 1012.3 1.3 80
2019-07-14 00:00:00 21.9 18 Sudoeste 30 Sudoeste 0 1012.4 2.3 76
2019-07-13 23:00:00 23.1 22 Sudoeste 33 Sudoeste 0 1011.9 2.2 67
2019-07-13 22:00:00 24.1 23 Sudoeste 41 Sudoeste 0 1011 1.4 62
2019-07-13 21:00:00 26.1 27 Sudoeste 41 Sudoeste 0 1010.1 -0.2 55
2019-07-13 20:00:00 27.7 30 Sudoeste 45 Sudoeste 0 1009.7 -0.9 48
2019-07-13 19:00:00 28.8 22 Sudoeste 41 Sudoeste 0 1009.6 -1.6 42
2019-07-13 18:00:00 29.4 28 Sudoeste 42 Sudoeste 0 1010.3 -1.7 42
2019-07-13 17:00:00 29.9 23 Sudoeste 37 Sudoeste 0 1010.6 -1.9 37
2019-07-13 16:00:00 29.9 19 Sudoeste 35 Sudoeste 0 1011.2 -1.9 36
2019-07-13 15:00:00 29.5 15 Sudoeste 26 Sudoeste 0 1012 -1.3 39
2019-07-13 14:00:00 28.3 14 Sur 26 Sur 0 1012.5 -1 39
2019-07-13 13:00:00 26.4 10 Oeste 26 Oeste 0 1013.1 -0.4 48
2019-07-13 12:00:00 25.3 11 Sudoeste 18 Sudoeste 0 1013.3 0.1 54
2019-07-13 11:00:00 23 7 Oeste 22 Noroeste 0 1013.5 0.5 68
2019-07-13 10:00:00 22.2 6 Sudoeste 11 Sudoeste 0 1013.5 1.3 72
2019-07-13 09:00:00 21.3 5 Sudoeste 15 Sudoeste 0 1013.2 1 78
2019-07-13 08:00:00 20.5 12 Sudoeste 15 Sudoeste 0 1013 0.4 82
2019-07-13 07:00:00 20.5 6 Sur 13 Oeste 0 1012.2 -0.7 81
2019-07-13 06:00:00 21 8 Oeste 13 Oeste 0 1012.2 -1.1 75
2019-07-13 05:00:00 20.9 9 Sudoeste 22 Oeste 0 1012.6 -0.9 81
2019-07-13 04:00:00 21.1 12 Sudoeste 24 Oeste 0 1012.9 -0.5 81
2019-07-13 03:00:00 21.4 16 Oeste 26 Oeste 0 1013.3 0.3 81
2019-07-13 02:00:00 21.5 16 Sudoeste 26 Sudoeste 0 1013.5 1.3 80
2019-07-13 01:00:00 21.9 19 Sudoeste 32 Sudoeste 0 1013.4 2.1 76
2019-07-13 00:00:00 22.5 24 Sudoeste 35 Sudoeste 0 1013 2.2 75
2019-07-12 23:00:00 23.3 18 Sudoeste 37 Sudoeste 0 1012.2 1.7 71
2019-07-12 22:00:00 24.9 22 Sudoeste 32 Sudoeste 0 1011.3 1 66
2019-07-12 21:00:00 26.8 13 Sudoeste 35 Sudoeste 0 1010.8 0.7 53
2019-07-12 20:00:00 27.3 26 Sudoeste 39 Sudoeste 0 1010.5 0.1 54
2019-07-12 19:00:00 27.9 27 Sudoeste 37 Sudoeste 0 1010.3 0.1 53
2019-07-12 18:00:00 30.4 17 Sudoeste 30 Sudoeste 0 1010.1 -0.9 47
2019-07-12 17:00:00 32.2 14 Oeste 26 Oeste 0 1010.4 -0.9 40
2019-07-12 16:00:00 31.4 11 Sudoeste 26 Sudoeste 0 1010.2 -- 44
2019-07-12 15:00:00 31.1 10 Sur 21 Sur 0 1011 -0.5 42
2019-07-12 14:00:00 29.7 13 Oeste 22 Oeste 0 1011.3 0.5 49
2019-07-12 13:00:00 -- 3 Norte 15 Nordeste 0 -- -- --
2019-07-12 12:00:00 26.8 8 Este 33 Norte 0 1011.5 -0.8 62
2019-07-12 11:00:00 24.1 15 Norte 24 Norte 0 1010.8 -0.6 73
2019-07-12 10:00:00 23.6 4 Sudoeste 18 Sudoeste 0 1012.3 1.1 75
2019-07-12 09:00:00 23.1 14 Sudoeste 21 Sudoeste 0 1012.3 1.2 77
2019-07-12 08:00:00 22.7 6 Sur 11 Sur 0 1011.4 0.5 79
2019-07-12 07:00:00 22.9 8 Sudoeste 15 Sudoeste 0 1011.2 0 77
2019-07-12 06:00:00 23 6 Sur 9 Sur 0 1011.1 -0.3 77
2019-07-12 05:00:00 23.1 5 Oeste 15 Sudoeste 0 1010.9 -0.7 75
2019-07-12 04:00:00 23.3 11 Sudoeste 21 Oeste 0 1011.2 0 75
2019-07-12 03:00:00 23.8 14 Oeste 22 Oeste 0 1011.4 0.8 72
2019-07-12 02:00:00 24.3 14 Oeste 24 Oeste 0 1011.6 1.8 70
2019-07-12 01:00:00 24.9 16 Oeste 28 Sudoeste 0 1011.2 2.7 66
2019-07-12 00:00:00 26.1 17 Oeste 30 Oeste 0 1010.6 3.3 60
2019-07-11 23:00:00 27.5 18 Sudoeste 33 Oeste 0 1009.8 3.1 53
2019-07-11 22:00:00 29.6 22 Oeste 32 Oeste -- 1008.5 2.2 47
2019-07-11 21:00:00 33 18 Oeste 32 Oeste 0 1007.3 1.2 35
2019-07-11 20:00:00 35.9 25 Oeste 35 Oeste 0 1006.7 0.2 28
2019-07-11 19:00:00 37.4 24 Sudoeste 35 Sudoeste 0 1006.3 -0.8 24
2019-07-11 18:00:00 40 12 Sur 30 Nordeste 0 1006.1 -1.6 16
2019-07-11 17:00:00 39.7 15 Este 28 Nordeste 0 1006.5 -1.6 16
2019-07-11 16:00:00 38.5 15 Nordeste 30 Este 0 1007.1 -1.5 18
2019-07-11 15:00:00 37.6 18 Este 39 Este 0 1007.7 -1.4 18
2019-07-11 14:00:00 36.4 18 Este 35 Este 0 1008.1 -1 20
2019-07-11 13:00:00 34.9 21 Este 35 Sudeste 0 1008.6 -0.3 21
2019-07-11 12:00:00 33.3 19 Este 30 Este 0 1009.1 0.4 25
2019-07-11 11:00:00 30.4 20 Nordeste 28 Nordeste 0 1009.1 0.7 31
2019-07-11 10:00:00 27.4 18 Nordeste 26 Nordeste 0 1008.9 0.3 43
2019-07-11 09:00:00 23.9 14 Nordeste 18 Nordeste 0 1008.7 0.1 54
2019-07-11 08:00:00 20.5 10 Norte 13 Norte 0 1008.4 -0.3 61
2019-07-11 07:00:00 20.4 5 Nordeste 11 Sudeste 0 1008.6 -0.3 63
2019-07-11 06:00:00 21 7 Este 11 Este 0 1008.6 -0.6 61
2019-07-11 05:00:00 21.6 9 Este 11 Este 0 1008.7 -0.5 61
2019-07-11 04:00:00 22.4 6 Este 8 Este 0 1008.9 -0.2 58
2019-07-11 03:00:00 24.9 4 Sur 15 Sudoeste 0 1009.2 0.5 48
2019-07-11 02:00:00 25.5 8 Sur 11 Sudoeste 0 1009.2 1.2 45
2019-07-11 01:00:00 27 9 Sudoeste 13 Sudoeste 0 1009.1 2.3 38
2019-07-11 00:00:00 28.1 8 Oeste 21 Sudoeste 0 1008.7 2.4 34
2019-07-10 23:00:00 29 14 Oeste 33 Oeste 0 1008 2.4 33
2019-07-10 22:00:00 30 17 Sudoeste 39 Sudoeste 0 1006.8 1.1 35
2019-07-10 21:00:00 31.6 32 Sudoeste 42 Sudoeste 0 1006.3 0.3 34
2019-07-10 20:00:00 37.2 19 Noroeste 33 Norte 0 1005.6 -0.8 15
2019-07-10 19:00:00 37.3 19 Norte 45 Norte 0 1005.7 -1.4 16
2019-07-10 18:00:00 37.5 21 Noroeste 42 Norte 0 1006 -1.8 17
2019-07-10 17:00:00 37.4 10 Noroeste 21 Sudeste 0 1006.4 -2.2 15
2019-07-10 16:00:00 36.6 9 Nordeste 24 Este 0 1007.1 -2.1 15
2019-07-10 15:00:00 35.8 10 Este 32 Nordeste 0 1007.8 -1.8 18
2019-07-10 14:00:00 33.5 8 Este 30 Nordeste 0 1008.6 -1.2 26
2019-07-10 13:00:00 30.9 11 Nordeste 18 Este 0 1009.2 -0.7 34
2019-07-10 12:00:00 28.5 8 Nordeste 17 Nordeste 0 1009.6 -0.3 40
2019-07-10 11:00:00 26.3 7 Nordeste 13 Nordeste 0 1009.8 -0.1 46
2019-07-10 10:00:00 23.4 6 Nordeste 15 Nordeste 0 1009.9 -0.1 58
2019-07-10 09:00:00 21.6 6 Nordeste 11 Este 0 1009.9 0.1 67
2019-07-10 08:00:00 18.6 9 Este 13 Este 0 1009.9 0.1 79
2019-07-10 07:00:00 18 5 Este 8 Este 0 1010 0.1 82
2019-07-10 06:00:00 18.4 4 Sudeste 5 Sudeste 0 1009.8 -0.2 82
2019-07-10 05:00:00 19.1 4 Sur 17 Sur 0 1009.8 -0.3 80
2019-07-10 04:00:00 19.2 14 Sur 22 Sur 0 1009.9 -0.4 79
2019-07-10 03:00:00 19.7 15 Sur 22 Sur 0 1010 -0.7 75
2019-07-10 02:00:00 21.1 11 Sur 18 Sur 0 1010.1 -0.2 67
2019-07-10 01:00:00 22.1 9 Sur 21 Oeste 0 1010.3 0.5 57
2019-07-10 00:00:00 23.1 17 Oeste 26 Noroeste 0 1010.7 1.5 55
2019-07-09 23:00:00 24.6 13 Noroeste 21 Oeste 0 1010.3 1.3 49
2019-07-09 22:00:00 25.7 13 Sudoeste 26 Sudoeste 0 1009.8 1 42
2019-07-09 21:00:00 27.9 19 Sudoeste 32 Sudoeste 0 1009.2 0.1 40
2019-07-09 20:00:00 28.6 24 Sudoeste 37 Sudoeste 0 1009 -0.5 41
2019-07-09 19:00:00 30 24 Sudoeste 35 Oeste 0 1008.8 -1.4 39
2019-07-09 18:00:00 31.1 17 Sudoeste 32 Sudoeste 0 1009.1 -1.8 33
2019-07-09 17:00:00 31.5 8 Oeste 24 Oeste 0 1009.5 -2 31
2019-07-09 16:00:00 30.6 10 Norte 24 Norte 0 1010.2 -1.9 32
2019-07-09 15:00:00 29.6 11 Sudoeste 26 Oeste 0 1010.9 -1.6 35
2019-07-09 14:00:00 28.9 14 Oeste 22 Oeste 0 1011.5 -1.2 37
2019-07-09 13:00:00 27.8 9 Sur 18 Sur 0 1012.1 -0.5 43
2019-07-09 12:00:00 26.1 8 Sudoeste 18 Sur 0 1012.5 0.4 49
2019-07-09 11:00:00 24.6 5 Sur 13 Sudoeste 0 1012.7 0.9 57
2019-07-09 10:00:00 22.5 3 Nordeste 8 Norte 0 1012.6 1.1 68
2019-07-09 09:00:00 20.3 2 Sur 9 Sur 0 1012.1 0.7 78
2019-07-09 08:00:00 17.7 4 Sur 13 Sur 0 1011.8 0.5 89
2019-07-09 07:00:00 17 12 Sur 15 Sur 0 1011.5 -0.1 92
2019-07-09 06:00:00 17.3 5 Sur 11 Sudoeste 0 1011.4 -0.2 90
2019-07-09 05:00:00 18.3 6 Sudoeste 15 Sudoeste 0 1011.3 -0.6 88
2019-07-09 04:00:00 18.5 10 Sur 15 Sur 0 1011.6 -0.6 87
2019-07-09 03:00:00 19.3 8 Sur 18 Sur 0 1011.6 -0.5 84
2019-07-09 02:00:00 19.8 13 Sudoeste 22 Sudoeste 0 1011.9 0.3 83
2019-07-09 01:00:00 20 13 Sudoeste 24 Sudoeste 0 1012.2 1 82
2019-07-09 00:00:00 20.4 17 Sudoeste 26 Sudoeste 0 1012.1 1.9 77
2019-07-08 23:00:00 21.3 13 Sur 30 Sudoeste 0 1011.6 2 71
2019-07-08 22:00:00 22.8 18 Sudoeste 35 Sudoeste 0 1011.2 1.8 59
2019-07-08 21:00:00 24.2 27 Sudoeste 42 Sudoeste 0 1010.2 0.6 55
2019-07-08 20:00:00 25.4 33 Sudoeste 46 Sudoeste 0 1009.6 -0.3 49
2019-07-08 19:00:00 26.2 33 Sudoeste 46 Sudoeste 0 1009.4 -1.1 46
2019-07-08 18:00:00 27.1 28 Sudoeste 46 Sudoeste 0 1009.6 -1.1 42
2019-07-08 17:00:00 27.2 29 Sudoeste 45 Sudoeste 0 1009.9 -1.1 40
2019-07-08 16:00:00 27.4 25 Sudoeste 45 Sudoeste 0 1010.5 -0.7 41
2019-07-08 15:00:00 27.1 26 Sudoeste 45 Sudoeste 0 1010.7 -0.9 42
2019-07-08 14:00:00 26.6 25 Sudoeste 41 Sudoeste 0 1011 -0.8 46
2019-07-08 13:00:00 26.2 23 Sudoeste 41 Sur 0 1011.2 -0.4 46
2019-07-08 12:00:00 24 15 Sudoeste 30 Sudoeste 0 1011.6 0.3 57
2019-07-08 11:00:00 22.4 17 Sudoeste 28 Sudoeste 0 1011.8 0.8 61
2019-07-08 10:00:00 20.6 12 Sur 17 Sudoeste 0 1011.6 1.1 65
2019-07-08 09:00:00 19.1 11 Sur 17 Sur 0 1011.3 1.4 72
2019-07-08 08:00:00 17.8 5 Sur 15 Sur 0 1011 1.2 78
2019-07-08 07:00:00 17.5 9 Sudoeste 18 Sur 0 1010.5 0.7 80
2019-07-08 06:00:00 17.8 12 Sur 18 Sur 0 1009.9 -0.1 84
2019-07-08 05:00:00 18.3 15 Sur 22 Sur 0 1009.8 -0.2 84
2019-07-08 04:00:00 18.5 15 Sur 18 Sur 0 1009.8 -0.1 84
2019-07-08 03:00:00 19.4 12 Sur 22 Sudoeste 0 1010 0 82
2019-07-08 02:00:00 19.8 14 Sur 26 Sur 0 1010 0.4 79
2019-07-08 01:00:00 20.4 15 Sur 32 Sudoeste 0 1009.9 0.9 76
2019-07-08 00:00:00 21.2 19 Sur 28 Sudoeste 0 1010 1.3 71
2019-07-07 23:00:00 22.4 17 Sur 35 Sudoeste 0 1009.6 1.7 64
2019-07-07 22:00:00 24 23 Sudoeste 39 Sudoeste 0 1009 1.3 57
2019-07-07 21:00:00 25.9 28 Sudoeste 42 Sudoeste 0 1008.7 1.1 49
2019-07-07 20:00:00 27.6 30 Sudoeste 45 Sudoeste 0 1007.9 -0.4 43
2019-07-07 19:00:00 29.2 30 Sudoeste 48 Sudoeste 0 1007.7 -1.1 38
2019-07-07 18:00:00 30.8 33 Sudoeste 46 Sudoeste 0 1007.6 -1.7 30
2019-07-07 17:00:00 31.3 31 Sudoeste 41 Sudoeste 0 1008.3 -1.8 31
2019-07-07 16:00:00 31.9 19 Sudoeste 32 Oeste 0 1008.8 -1.6 29
2019-07-07 15:00:00 31.2 14 Sudoeste 30 Sudoeste 0 1009.3 -1.5 35
2019-07-07 14:00:00 30 12 Sudoeste 24 Sudoeste 0 1010.1 -0.7 39
2019-07-07 13:00:00 28.4 11 Sudoeste 22 Sudoeste 0 1010.4 -0.8 46
2019-07-07 12:00:00 26.5 5 Norte 13 Norte 0 1010.8 -0.6 54
2019-07-07 11:00:00 24.3 4 Noroeste 30 Norte 0 1010.8 -0.5 65
2019-07-07 10:00:00 23.1 4 Nordeste 15 Norte 0 1011.2 -0.2 71
2019-07-07 09:00:00 20.7 2 Este 5 Sudeste 0 1011.4 0.5 81
2019-07-07 08:00:00 17.8 6 Sudeste -- -- 0 1011.3 0.5 90
2019-07-07 07:00:00 18.3 0 Calma 9 Sur 0 1011.4 0.1 89
2019-07-07 06:00:00 18.7 8 Sur 11 Sur 0 1010.9 -0.7 88
2019-07-07 05:00:00 19 5 Sur 11 Sur 0 1010.8 -1.2 89
2019-07-07 04:00:00 19.7 5 Sur 15 Sur 0 1011.3 -0.8 86
2019-07-07 03:00:00 20.2 11 Sudoeste 24 Sudoeste 0 1011.6 -0.3 86
2019-07-07 02:00:00 20.6 15 Sudoeste 26 Sudoeste 0 1012 0.3 82
2019-07-07 01:00:00 20.9 15 Sur 30 Sudoeste 0 1012.1 1.1 81
2019-07-07 00:00:00 21.3 12 Sudoeste 30 Sudoeste 0 1011.9 2.4 77
2019-07-06 23:00:00 22.3 18 Sudoeste 37 Sudoeste 0 1011.7 3 68
2019-07-06 22:00:00 23.9 26 Sudoeste 45 Sur 0 1011 2 54
2019-07-06 21:00:00 26.3 19 Sur 37 Sudoeste 0 1009.5 0.2 50
2019-07-06 20:00:00 28.5 21 Sudoeste 39 Sudoeste 0 1008.7 -1.5 40
2019-07-06 19:00:00 30.9 24 Sudoeste 37 Sudoeste 0 1009 -1 31
2019-07-06 18:00:00 32.3 16 Sudoeste 33 Sudoeste 0 1009.3 -1.5 31
2019-07-06 17:00:00 32 14 Sudoeste 26 Oeste 0 1010.2 -1.2 29
2019-07-06 16:00:00 31.7 9 Sudoeste 28 Sudoeste 0 1010 -1.9 34
2019-07-06 15:00:00 31.1 12 Sudoeste 24 Oeste 0 1010.8 -0.9 33
2019-07-06 14:00:00 30.1 11 Sudoeste 22 Sudoeste 0 1011.4 -0.4 29
2019-07-06 13:00:00 28.3 7 Oeste 22 Noroeste 0 1011.9 0 38
2019-07-06 12:00:00 26 6 Noroeste 17 Norte 0 1011.7 -0.1 47
2019-07-06 11:00:00 24 2 Norte 8 Norte 0 1011.8 0.5 56
2019-07-06 10:00:00 22 5 Nordeste 11 Norte 0 1011.9 0.4 68
2019-07-06 09:00:00 19.8 3 Nordeste 17 Nordeste 0 1011.8 0 76
2019-07-06 08:00:00 16.6 6 Nordeste 13 Nordeste 0 1011.3 -0.8 88
2019-07-06 07:00:00 16.7 4 Nordeste 8 Norte 0 1011.5 -0.7 87
2019-07-06 06:00:00 16.9 2 Nordeste 8 Este 0 1011.8 -0.7 87
2019-07-06 05:00:00 16.9 5 Sudeste 13 Sur 0 1012.1 -1.2 87
2019-07-06 04:00:00 17.6 10 Sur 13 Sur 0 1012.2 -1.4 86
2019-07-06 03:00:00 18.9 0 Calma 15 Sudoeste 0 1012.5 -1.1 80
2019-07-06 02:00:00 19.3 13 Sudoeste 21 Sur 0 1013.3 0.6 78
2019-07-06 01:00:00 20.1 12 Sur 21 Sur 0 1013.6 2.1 70
2019-07-06 00:00:00 21.6 15 Sudoeste 22 Sudoeste 0 1013.6 2.6 62
2019-07-05 23:00:00 23.6 14 Sur 22 Sudoeste 0 1012.7 2.2 52
2019-07-05 22:00:00 25.4 16 Sudoeste 30 Sudoeste 0 1011.5 0.5 45
2019-07-05 21:00:00 28.5 21 Sudoeste 30 Sudoeste 0 1011 -0.5 34
2019-07-05 20:00:00 29.9 24 Sudoeste 33 Sudoeste 0 1010.5 -1.4 33
2019-07-05 19:00:00 31.1 23 Sudoeste 32 Sudoeste 0 1011 -1.6 32
2019-07-05 18:00:00 32.3 17 Sudoeste 28 Sudoeste 0 1011.5 -1.7 30
2019-07-05 17:00:00 32.6 11 Sudoeste 26 Oeste 0 1011.9 -1.8 24
2019-07-05 16:00:00 31.6 14 Sudoeste 24 Sudoeste 0 1012.6 -1.4 25
2019-07-05 15:00:00 30.3 9 Oeste 21 Sudoeste 0 1013.2 -1.1 28
2019-07-05 14:00:00 28.9 9 Sudoeste 21 Oeste 0 1013.7 -0.5 32
2019-07-05 13:00:00 27.1 6 Oeste 15 Nordeste 0 1014 -0.4 40
2019-07-05 12:00:00 25.7 4 Este 13 Sudeste 0 1014.3 -0.1 47
2019-07-05 11:00:00 23.4 6 Nordeste 13 Este 0 1014.2 0.1 58
2019-07-05 10:00:00 21.6 4 Norte 8 Norte 0 1014.4 0.6 67
2019-07-05 09:00:00 19.4 4 Nordeste 9 Nordeste 0 1014.4 0.7 78
2019-07-05 08:00:00 17.2 3 Nordeste 11 Sur 0 1014.1 0.3 86
2019-07-05 07:00:00 16.2 9 Sudeste 11 Sur 0 1013.8 -0.2 90
2019-07-05 06:00:00 16.4 8 Sudeste 9 Sudeste 0 1013.7 -0.6 89
2019-07-05 05:00:00 17.4 6 Sur 11 Sur 0 1013.8 -0.7 87
2019-07-05 04:00:00 17.5 8 Sur 9 Sur 0 1014 -0.2 86
2019-07-05 03:00:00 19 5 Sur 13 Sur 0 1014.3 0.7 79
2019-07-05 02:00:00 19.4 9 Sudoeste 21 Sudoeste 0 1014.5 1.9 77
2019-07-05 01:00:00 19.8 13 Sudoeste 24 Sudoeste 0 1014.2 2.4 75
2019-07-05 00:00:00 20.7 17 Sudoeste 24 Sudoeste 0 1013.6 2.4 71
2019-07-04 23:00:00 22 15 Sudoeste 26 Sudoeste 0 1012.6 1.7 62
2019-07-04 22:00:00 23.4 17 Sudoeste 28 Sudoeste 0 1011.8 1 57
2019-07-04 21:00:00 25.5 20 Sudoeste 30 Sudoeste 0 1011.2 -0.1 48
2019-07-04 20:00:00 26.8 20 Sudoeste 30 Sudoeste 0 1010.9 -0.6 46
2019-07-04 19:00:00 27.5 18 Sudoeste 32 Sudoeste 0 1010.8 -1 44
2019-07-04 18:00:00 27.5 22 Sudoeste 37 Sudoeste 0 1011.3 -1.1 45
2019-07-04 17:00:00 27.5 19 Sudoeste 33 Sudoeste 0 1011.5 -1.3 44
2019-07-04 16:00:00 27.2 19 Sudoeste 33 Sudoeste 0 1011.8 -1.1 44
2019-07-04 15:00:00 26.9 19 Sudoeste 35 Sudoeste 0 1012.4 -0.6 46
2019-07-04 14:00:00 26.2 14 Sudoeste 30 Sudoeste 0 1012.8 -0.2 49
2019-07-04 13:00:00 25.1 14 Sudoeste 30 Sudoeste 0 1012.9 0.1 49
2019-07-04 12:00:00 23.9 14 Sudoeste 28 Sudoeste 0 1013 0.7 53
2019-07-04 11:00:00 22.5 13 Sur 24 Sur 0 1013 0.8 59
2019-07-04 10:00:00 20.9 11 Sur 18 Sur 0 1012.8 1.1 67
2019-07-04 09:00:00 20.1 10 Sur 18 Sudeste 0 1012.3 0.9 74
2019-07-04 08:00:00 18.4 10 Sudoeste 15 Sudoeste 0 1012.2 0.9 83
2019-07-04 07:00:00 18.3 4 Sur 15 Sur 0 1011.7 0.4 82
2019-07-04 06:00:00 18.8 9 Sur 13 Sur 0 1011.4 -0.2 81
2019-07-04 05:00:00 18.1 8 Sur 15 Sur 0 1011.3 0 84
2019-07-04 04:00:00 18.5 10 Sur 15 Sur 0 1011.3 0.2 83
2019-07-04 03:00:00 19.6 8 Sudoeste 17 Sur 0 1011.6 0.8 78
2019-07-04 02:00:00 20.1 12 Sudoeste 18 Sudoeste 0 1011.3 1.3 79
2019-07-04 01:00:00 20.1 14 Sudoeste 21 Sur 0 1011.1 1.7 77
2019-07-04 00:00:00 21 13 Sudoeste 21 Sudoeste 0 1010.8 1.9 69
2019-07-03 23:00:00 21.7 14 Sudoeste 24 Sudoeste 0 1010 1.3 66
2019-07-03 22:00:00 22.7 17 Sudoeste 30 Sudoeste 0 1009.4 0.8 61
2019-07-03 21:00:00 24.3 22 Sudoeste 32 Sudoeste 0 1008.9 -0.1 57
2019-07-03 20:00:00 26 22 Sudoeste 32 Sudoeste 0 1008.7 -0.8 51
2019-07-03 19:00:00 27.4 18 Sudoeste 33 Sudoeste 0 1008.6 -1.3 49
2019-07-03 18:00:00 28.3 18 Sudoeste 30 Sudoeste 0 1009 -1.5 47
2019-07-03 17:00:00 28.5 18 Sudoeste 30 Oeste 0 1009.5 -1.5 46
2019-07-03 16:00:00 27.8 15 Sudoeste 33 Oeste 0 1009.9 -1.5 49
2019-07-03 15:00:00 26.9 17 Sudoeste 33 Sudoeste 0 1010.5 -1.1 51
2019-07-03 14:00:00 25.9 15 Sudoeste 26 Sudoeste 0 1011 -0.5 54
2019-07-03 13:00:00 24.4 12 Sudoeste 22 Sudoeste 0 1011.4 -0.2 58
2019-07-03 12:00:00 22.1 15 Sudoeste 32 Sudoeste 0 1011.6 0.2 66
2019-07-03 11:00:00 20.9 10 Sudoeste 17 Sudoeste 0 1011.5 0.7 71
2019-07-03 10:00:00 20.1 6 Oeste 15 Oeste 0 1011.6 0.9 75
2019-07-03 09:00:00 19.6 9 Sudoeste 15 Sudoeste 0 1011.4 0.6 77
2019-07-03 08:00:00 18.8 4 Sur 8 Sur 0 1010.8 0.3 82
2019-07-03 07:00:00 18.6 4 Sudoeste 9 Sudoeste 0 1010.7 0.1 84
2019-07-03 06:00:00 18.3 5 Sudoeste 15 Sudoeste 0 1010.8 0.3 86
2019-07-03 05:00:00 18.5 10 Sur 21 Sudoeste 0 1010.5 -0.1 85
2019-07-03 04:00:00 18.6 16 Sur 24 Sur 0 1010.6 0.1 86
2019-07-03 03:00:00 18.8 12 Sudoeste 18 Sudoeste 0 1010.5 0.1 89
2019-07-03 02:00:00 19.2 11 Sur 17 Sudoeste 0 1010.6 0.5 87
2019-07-03 01:00:00 20 15 Sudoeste 22 Sudoeste 0 1010.5 1.2 81
2019-07-03 00:00:00 21.2 17 Sudoeste 28 Sudoeste 0 1010.4 1.6 73
2019-07-02 23:00:00 22.5 21 Sudoeste 32 Sudoeste 0 1010.1 1.4 65
2019-07-02 22:00:00 23.9 23 Sudoeste 32 Sudoeste 0 1009.3 0.4 61
2019-07-02 21:00:00 26.3 20 Sudoeste 30 Sudoeste 0 1008.8 -0.6 53
2019-07-02 20:00:00 28.2 23 Sudoeste 33 Sudoeste 0 1008.7 -1.1 47
2019-07-02 19:00:00 29.1 25 Sudoeste 37 Sudoeste 0 1008.9 -1.2 44
2019-07-02 18:00:00 29.7 24 Sudoeste 37 Sudoeste 0 1009.4 -1.3 40
2019-07-02 17:00:00 30.3 22 Sudoeste 33 Sudoeste 0 1009.8 -1.4 41
2019-07-02 16:00:00 30.5 20 Sudoeste 32 Sudoeste 0 1010.1 -1.5 39
2019-07-02 15:00:00 30.1 15 Sudoeste 26 Sudoeste 0 1010.7 -1.2 37
2019-07-02 14:00:00 29.4 16 Sudoeste 32 Oeste 0 1011.2 -0.8 42
2019-07-02 13:00:00 27.8 13 Sudoeste 22 Sudoeste 0 1011.6 -0.5 50
2019-07-02 12:00:00 26.3 12 Sudoeste 22 Sur 0 1011.9 0 57
2019-07-02 11:00:00 24.4 14 Sudoeste 24 Sudoeste 0 1012 0.3 65
2019-07-02 10:00:00 22.4 15 Sudoeste 24 Sudoeste 0 1012.1 0.6 75
2019-07-02 09:00:00 20.6 11 Sur 21 Sur 0 1011.9 0.7 83
2019-07-02 08:00:00 18.7 10 Sur 17 Sur 0 1011.7 0.6 89
2019-07-02 07:00:00 18.5 8 Sur 13 Sur 0 1011.5 -0.1 90
2019-07-02 06:00:00 18.7 7 Sudoeste 22 Sudoeste 0 1011.2 -0.7 88
2019-07-02 05:00:00 19.2 16 Sudoeste 22 Sudoeste 0 1011.1 -1.2 85
2019-07-02 04:00:00 19.9 4 Sur 18 Sudoeste 0 1011.6 -0.6 78
2019-07-02 03:00:00 20.5 11 Sur 24 Sur 0 1011.9 -0.1 75
2019-07-02 02:00:00 21.1 11 Sur 22 Sudoeste 0 1012.3 0.9 69
2019-07-02 01:00:00 21.6 15 Sur 28 Sur 0 1012.2 1.6 67
2019-07-02 00:00:00 22.6 15 Sur 30 Sudoeste 0 1012 1.8 63
2019-07-01 23:00:00 24 19 Sudoeste 33 Sudoeste 0 1011.4 1.2 55
2019-07-01 22:00:00 25.5 20 Sudoeste 39 Sudoeste 0 1010.6 0.2 55
2019-07-01 21:00:00 28 25 Sudoeste 39 Sudoeste 0 1010.2 -1 50
2019-07-01 20:00:00 30.5 23 Sudoeste 37 Sudoeste 0 1010.2 -1.4 41
2019-07-01 19:00:00 31.5 26 Sudoeste 39 Sudoeste 0 1010.4 -1.9 37
2019-07-01 18:00:00 32 25 Sudoeste 35 Sudoeste 0 1011.2 -1.9 41
2019-07-01 17:00:00 33 17 Sudoeste 32 Sudoeste 0 1011.6 -2.2 40
2019-07-01 16:00:00 31.7 16 Sudoeste 32 Oeste 0 1012.3 -1.9 42
2019-07-01 15:00:00 30.1 12 Sudoeste 26 Oeste 0 1013.1 -1.5 45
2019-07-01 14:00:00 28.4 15 Sudoeste 26 Oeste 0 1013.8 -0.9 51
2019-07-01 13:00:00 27.1 14 Sudoeste 22 Sudoeste 0 1014.2 -0.9 58
2019-07-01 12:00:00 25.5 11 Sudoeste 18 Sudoeste 0 1014.6 -0.2 61
2019-07-01 11:00:00 24 10 Sudoeste 17 Oeste 0 1014.7 0.3 67
2019-07-01 10:00:00 22.4 5 Oeste 17 Sudoeste 0 1015.1 0.9 73
2019-07-01 09:00:00 21.3 8 Sudoeste 15 Sur 0 1014.8 0.8 79
2019-07-01 08:00:00 20.8 9 Sur 17 Sur 0 1014.4 0.2 82
2019-07-01 07:00:00 20.6 12 Sudoeste 21 Sudoeste 0 1014.2 -0.3 85
2019-07-01 06:00:00 20.5 12 Sudoeste 18 Sudoeste 0 1014 -0.8 85
2019-07-01 05:00:00 20.2 10 Sudoeste 17 Sudoeste 0 1014.2 -0.6 88
2019-07-01 04:00:00 19.9 10 Sudoeste 21 Sudoeste 0 1014.5 -0.7 91
2019-07-01 03:00:00 20.1 15 Sudoeste -- -- -- 1014.8 0 90
2019-07-01 02:00:00 20.6 16 Sudoeste 26 Sudoeste 0 1014.8 0.9 89
2019-07-01 01:00:00 20.9 19 Sudoeste 30 Sudoeste 0 1015.2 2 87
2019-07-01 00:00:00 21.4 22 Sudoeste 32 Sudoeste 0 1014.8 2.3 84
2019-06-30 23:00:00 22.3 26 Sudoeste 37 Sudoeste 0 1013.9 1.7 78
2019-06-30 22:00:00 23.7 26 Sudoeste 41 Sudoeste 0 1013.2 1.1 73
2019-06-30 21:00:00 26.2 26 Sudoeste 35 Sudoeste 0 1012.5 -0.2 62
2019-06-30 20:00:00 28.6 25 Sudoeste 37 Sudoeste 0 1012.2 -1 54
2019-06-30 19:00:00 29.6 20 Sudoeste 32 Sudoeste 0 1012.1 -1.7 52
2019-06-30 18:00:00 29.9 21 Sudoeste 33 Sudoeste 0 1012.7 -1.3 51
2019-06-30 17:00:00 30.2 19 Sudoeste 33 Sudoeste 0 1013.2 -1.5 50
2019-06-30 16:00:00 29.6 18 Sudoeste 30 Sudoeste 0 1013.8 -1.1 50
2019-06-30 15:00:00 29 18 Sudoeste 35 Sudoeste 0 1014 -1 52
2019-06-30 14:00:00 28.2 17 Sudoeste 32 Sur 0 1014.7 0 55
2019-06-30 13:00:00 26.5 15 Oeste 28 Oeste 0 1014.9 0.6 60
2019-06-30 12:00:00 25.1 13 Sudoeste 21 Oeste 0 1015 1.3 66
2019-06-30 11:00:00 23.6 6 Sudoeste 15 Sur 0 1014.7 1.5 72
2019-06-30 10:00:00 22.5 8 Sur 13 Sur 0 1014.3 1.5 77
2019-06-30 09:00:00 22 11 Sudoeste 17 Sudoeste 0 1013.7 1.1 79
2019-06-30 08:00:00 21.3 10 Sudoeste 17 Sudoeste 0 1013.2 0.6 85
2019-06-30 07:00:00 21.1 9 Sudoeste 17 Sudoeste 0 1012.8 0.5 86
2019-06-30 06:00:00 20.9 8 Sur 15 Sudoeste 0 1012.6 0.3 88
2019-06-30 05:00:00 21 9 Sudoeste 15 Sudoeste 0 1012.6 0.5 88
2019-06-30 04:00:00 21.1 6 Sur 13 Sur 0 1012.3 0.6 85
2019-06-30 03:00:00 21.6 13 Sudoeste -- -- -- 1012.3 0.8 83
2019-06-30 02:00:00 22.4 11 Sudoeste 18 Sudoeste 0 1012.1 1.1 77
2019-06-30 01:00:00 23.5 8 Sur 18 Sudoeste 0 1011.7 2.1 72
2019-06-30 00:00:00 25 12 Sudoeste 30 Sudoeste 0 1011.5 2.5 64
2019-06-29 23:00:00 26.7 21 Sudoeste 35 Sudoeste 0 1011 2.5 56
2019-06-29 22:00:00 27.8 25 Sudoeste 37 Sudoeste 0 1009.6 1.3 52
2019-06-29 21:00:00 31 24 Sudoeste 39 Sudoeste 0 1009 0.6 44
2019-06-29 20:00:00 32.5 30 Sudoeste 39 Sudoeste 0 1008.5 -0.2 40
2019-06-29 19:00:00 33.8 27 Sudoeste 37 Sudoeste 0 1008.3 -0.9 38
2019-06-29 18:00:00 36.3 21 Sudoeste 32 Sudoeste 0 1008.4 -1.1 28
2019-06-29 17:00:00 36.5 12 Sudoeste 26 Sudoeste 0 1008.7 -1.5 24
2019-06-29 16:00:00 35.6 15 Oeste 26 Sudoeste 0 1009.2 -1.4 29
2019-06-29 15:00:00 35.3 7 Sur 18 Sudoeste 0 1009.5 -1.3 28
2019-06-29 14:00:00 33.7 6 Oeste 15 Sur 0 1010.2 -0.9 32
2019-06-29 13:00:00 32 6 Este 17 Oeste 0 1010.6 -0.6 37
2019-06-29 12:00:00 29.8 5 Noroeste 17 Noroeste 0 1010.8 -0.1 44
2019-06-29 11:00:00 28.5 9 Noroeste 18 Oeste 0 1011.1 0.7 47
2019-06-29 10:00:00 26.2 7 Noroeste 18 Norte 0 1011.2 0.8 55
2019-06-29 09:00:00 24.7 9 Noroeste 18 Noroeste 0 1010.9 0.5 61
2019-06-29 08:00:00 22.4 5 Sudoeste 11 Sudoeste 0 1010.4 -0.2 74
2019-06-29 07:00:00 21.7 6 Sudoeste 13 Sudoeste 0 1010.4 -0.1 77
2019-06-29 06:00:00 22.3 8 Sudoeste 13 Sudoeste 0 1010.4 -0.5 74
2019-06-29 05:00:00 23 9 Sudoeste 15 Sudoeste 0 1010.6 -0.4 71
2019-06-29 04:00:00 23.7 11 Sudoeste 17 Sudoeste 0 1010.5 -0.4 68
2019-06-29 03:00:00 24.4 9 Sudoeste -- -- -- 1010.9 0.3 65
2019-06-29 02:00:00 25 9 Sur 18 Sudoeste 0 1011 1.3 63
2019-06-29 01:00:00 26 12 Sudoeste 21 Oeste 0 1010.9 2.1 60
2019-06-29 00:00:00 27.4 19 Sudoeste 28 Oeste 0 1010.6 2.6 54
2019-06-28 23:00:00 28.9 15 Sudoeste 26 Sudoeste 0 1009.7 2 50
2019-06-28 22:00:00 30.1 18 Sudoeste 28 Sudoeste 0 1008.8 1.2 47
2019-06-28 21:00:00 31.6 18 Sudoeste 32 Sudoeste 0 1008 0.1 43
2019-06-28 20:00:00 33 25 Sudoeste 33 Sudoeste 0 1007.7 -0.6 40
2019-06-28 19:00:00 35.2 17 Sudoeste 26 Sudoeste 0 1007.6 -1.3 34
2019-06-28 18:00:00 35.5 12 Sudoeste 24 Oeste 0 1007.9 -1.7 31
2019-06-28 17:00:00 35.5 13 Sudoeste 24 Sudoeste 0 1008.3 -1.8 30
2019-06-28 16:00:00 34.9 10 Sudoeste 22 Sudoeste 0 1008.9 -1.6 29
2019-06-28 15:00:00 33.6 8 Oeste 22 Noroeste 0 1009.6 -1.5 27
2019-06-28 14:00:00 32.7 9 Oeste 18 Oeste 0 1010.1 -1.3 28
2019-06-28 13:00:00 31.2 6 Norte 13 Norte 0 1010.5 -1.2 31
2019-06-28 12:00:00 29.5 5 Oeste 13 Oeste 0 1011.1 -0.7 36
2019-06-28 11:00:00 27.7 5 Este 21 Nordeste 0 1011.4 -0.2 40
2019-06-28 10:00:00 25.5 5 Noroeste 11 Norte 0 1011.7 0.3 52
2019-06-28 09:00:00 23 4 Oeste 8 Oeste 0 1011.8 0.5 67
2019-06-28 08:00:00 20.7 5 Sudoeste 13 Sudoeste 0 1011.6 0.3 76
2019-06-28 07:00:00 20 6 Sudoeste 15 Sudoeste 0 1011.4 -0.4 75
2019-06-28 06:00:00 19.9 4 Sur 9 Sudoeste 0 1011.3 -1.2 73
2019-06-28 05:00:00 20.4 6 Sudoeste 13 Sur 0 1011.3 -1.4 74
2019-06-28 04:00:00 20.9 10 Sur 22 Sur 0 1011.8 -1 71
2019-06-28 03:00:00 21.3 15 Sur -- -- -- 1012.5 -0.4 70
2019-06-28 02:00:00 22.5 13 Sur 17 Sur 0 1012.7 0.1 61
2019-06-28 01:00:00 24.1 4 Sudeste 15 Sudoeste 0 1012.8 1.3 56
2019-06-28 00:00:00 24.2 14 Sudoeste 26 Sudoeste 0 1012.9 1.9 55
2019-06-27 23:00:00 25.5 18 Sudoeste 30 Sudoeste 0 1012.6 2 51
2019-06-27 22:00:00 27.2 20 Sudoeste 30 Sudoeste 0 1011.5 0.9 49
2019-06-27 21:00:00 29.2 18 Sudoeste 30 Sur 0 1011 -0.1 45
2019-06-27 20:00:00 30.9 18 Sudoeste 28 Sudoeste 0 1010.6 -0.9 40
2019-06-27 19:00:00 31.7 18 Sudoeste 28 Sudoeste 0 1010.6 -1.5 37
2019-06-27 18:00:00 31.4 17 Sudoeste 32 Sudoeste 0 1011.1 -1.4 39
2019-06-27 17:00:00 31 15 Sudoeste 32 Sudoeste 0 1011.5 -1.4 42
2019-06-27 16:00:00 31.2 21 Sudoeste 37 Oeste 0 1012.1 -1.1 41
2019-06-27 15:00:00 30.2 15 Sur 30 Sudoeste 0 1012.5 -1.1 45
2019-06-27 14:00:00 29.7 18 Sudoeste 33 Sur 0 1012.9 -0.8 45
2019-06-27 13:00:00 28.5 12 Oeste 24 Oeste 0 1013.2 -0.3 46
2019-06-27 12:00:00 26.6 11 Oeste 22 Oeste 0 1013.6 0.4 53
2019-06-27 11:00:00 25.6 11 Sudoeste 18 Oeste 0 1013.7 0.9 50
2019-06-27 10:00:00 23.9 8 Sudoeste 13 Sur 0 1013.5 1 58
2019-06-27 09:00:00 21.7 11 Sur 17 Sur 0 1013.2 0.8 76
2019-06-27 08:00:00 19.7 13 Sur 17 Sur 0 1012.8 0.6 86
2019-06-27 07:00:00 18.8 7 Sur 11 Sur 0 1012.5 0.4 85
2019-06-27 06:00:00 19.3 6 Sudeste 13 Sudoeste 0 1012.4 -0.5 83
2019-06-27 05:00:00 19.9 7 Sur 9 Sur 0 1012.2 -1.3 81
2019-06-27 04:00:00 20.4 7 Sudoeste 17 Sudoeste 0 1012.1 -1.3 82
2019-06-27 03:00:00 21.1 13 Sudoeste -- -- -- 1012.9 -0.2 79
2019-06-27 02:00:00 21.9 13 Sudoeste 18 Sudoeste 0 1013.5 1.1 78
2019-06-27 01:00:00 22.9 13 Sudoeste 21 Sudoeste 0 1013.4 1.9 74
2019-06-27 00:00:00 24.9 15 Sudoeste 26 Oeste 0 1013.1 2.1 56
2019-06-26 23:00:00 25.5 17 Oeste 32 Oeste 0 1012.4 1.8 55
2019-06-26 22:00:00 27.2 24 Oeste 32 Oeste 0 1011.5 1.1 47
2019-06-26 21:00:00 29.6 17 Sudoeste 33 Sudoeste 0 1011 0.2 39
2019-06-26 20:00:00 31.1 17 Oeste 32 Oeste 0 1010.6 -0.8 35
2019-06-26 19:00:00 32 17 Sudoeste 32 Sudoeste 0 1010.4 -1.7 34
2019-06-26 18:00:00 31.6 21 Sudoeste 32 Sudoeste 0 1010.8 -2 34
2019-06-26 17:00:00 31.3 18 Sudoeste 30 Sudoeste 0 1011.4 -2.1 35
2019-06-26 16:00:00 30.4 17 Sudoeste 33 Sudoeste 0 1012.1 -1.8 36
2019-06-26 15:00:00 29.4 17 Sudoeste 30 Sudoeste 0 1012.8 -1.2 42
2019-06-26 14:00:00 28.4 17 Sudoeste 32 Sudoeste 0 1013.5 -0.7 47
2019-06-26 13:00:00 27.2 16 Sudoeste 26 Sudoeste 0 1013.9 -0.1 53
2019-06-26 12:00:00 25.7 12 Sur 24 Oeste -- 1014 0.4 58
2019-06-26 11:00:00 24.4 10 Sudoeste 17 Sudoeste 0 1014.2 1 66
2019-06-26 10:00:00 22.9 10 Sudoeste 15 Sudoeste 0 1014 1.3 73
2019-06-26 09:00:00 21.4 8 Sudoeste 15 Sudoeste 0 1013.6 1.3 80
2019-06-26 08:00:00 20.3 8 Sudoeste 15 Sudoeste 0 1013.2 0.9 87
2019-06-26 07:00:00 20 12 Sudoeste 17 Sudoeste 0 1012.7 0.6 90
2019-06-26 06:00:00 19.6 10 Sudoeste 17 Sudoeste 0 1012.3 0.1 91
2019-06-26 05:00:00 19.5 10 Sur 17 Sur 0 1012.3 0 90
2019-06-26 04:00:00 20.1 12 Sur 17 Sur 0 1012.1 0 89
2019-06-26 03:00:00 20.5 11 Sur -- -- -- 1012.2 0.6 86
2019-06-26 02:00:00 21 12 Sudoeste 18 Sudoeste 0 1012.3 1.3 82
2019-06-26 01:00:00 22 15 Sudoeste 21 Sudoeste 0 1012.1 1.9 75
2019-06-26 00:00:00 23 12 Sur 22 Sudoeste 0 1011.6 2 68
2019-06-25 23:00:00 24.4 15 Sudoeste 28 Sudoeste 0 1011 1.7 58
2019-06-25 22:00:00 26.2 22 Sudoeste 32 Sudoeste 0 1010.2 1 49
2019-06-25 21:00:00 28.9 18 Sudoeste 32 Sudoeste 0 1009.6 0.1 40
2019-06-25 20:00:00 30.9 21 Sudoeste 30 Sudoeste 0 1009.3 -0.5 32
2019-06-25 19:00:00 32.4 17 Sudoeste 28 Sudoeste 0 1009.2 -1 26
2019-06-25 18:00:00 32.6 16 Sudoeste 32 Sudoeste 0 1009.5 -1.3 24
2019-06-25 17:00:00 32.2 18 Sudoeste 30 Oeste 0 1009.8 -1.7 26
2019-06-25 16:00:00 31.3 14 Sudoeste 28 Sudoeste 0 1010.2 -1.9 32
2019-06-25 15:00:00 30.6 14 Sudoeste 26 Sudoeste 0 1010.8 -1.8 38
2019-06-25 14:00:00 29.1 13 Sudoeste 24 Oeste 0 1011.5 -1.1 44
2019-06-25 13:00:00 27.9 12 Sudoeste 22 Sudoeste 0 1012.1 -0.5 50
2019-06-25 12:00:00 26.5 8 Sur 21 Sudoeste 0 1012.6 0.2 51
2019-06-25 11:00:00 24.8 8 Sudoeste 17 Sudoeste 0 1012.6 0.5 57
2019-06-25 10:00:00 23.3 10 Sudoeste 15 Sudoeste 0 1012.6 1 64
2019-06-25 09:00:00 21.4 7 Sur 11 Sur 0 1012.4 1.5 76
2019-06-25 08:00:00 19.3 4 Este 5 Este 0 1012.1 1.2 86
2019-06-25 07:00:00 18.1 5 Sur 11 Sur 0 1011.6 0.5 91
2019-06-25 06:00:00 18 8 Sur 11 Sudeste 0 1010.9 -0.4 92
2019-06-25 05:00:00 18.5 6 Sur 13 Sudoeste 0 1010.9 -0.7 89
2019-06-25 04:00:00 19.6 8 Sudoeste 22 Sudoeste 0 1011.1 -0.3 86
2019-06-25 03:00:00 20 13 Sudoeste 24 Sudoeste 0 1011.3 0 84
2019-06-25 02:00:00 20.4 17 Sudoeste 28 Sudoeste 0 1011.6 1.1 80
2019-06-25 01:00:00 21.2 13 Sur 22 Sur 0 1011.4 1.5 74
2019-06-25 00:00:00 22.3 12 Sur 24 Sudoeste 0 1011.3 1.8 69
2019-06-24 23:00:00 23.6 16 Sudoeste 30 Sudoeste 0 1010.5 1.2 67
2019-06-24 22:00:00 25 21 Sudoeste 30 Sudoeste 0 1009.9 0.6 66
2019-06-24 21:00:00 27.8 17 Sudoeste 30 Sudoeste 0 1009.5 0.2 52
2019-06-24 20:00:00 28.7 23 Sudoeste 35 Sudoeste 0 1009.3 -0.1 48
2019-06-24 19:00:00 29.2 27 Sudoeste 39 Sudoeste 0 1009.3 -0.3 47
2019-06-24 18:00:00 29.8 27 Sudoeste 41 Sudoeste 0 1009.3 -0.7 47
2019-06-24 17:00:00 29.9 23 Sudoeste 35 Sur 0 1009.4 -1.1 47
2019-06-24 16:00:00 29.7 20 Sudoeste 37 Sudoeste 0 1009.6 -1 49
2019-06-24 15:00:00 28.8 19 Sudoeste 32 Sudoeste 0 1010 -0.9 49
2019-06-24 14:00:00 28.3 19 Sudoeste 32 Sudoeste 0 1010.5 -0.5 52
2019-06-24 13:00:00 26.9 14 Sudoeste 28 Sudoeste 0 1010.6 -0.4 55
2019-06-24 12:00:00 25.5 17 Sudoeste 26 Sudoeste 0 1010.9 0.1 57
2019-06-24 11:00:00 24 10 Sudoeste 18 Oeste 0 1011 0.9 64
2019-06-24 10:00:00 22.3 10 Sudoeste 18 Sudoeste 0 1011 1.1 69
2019-06-24 09:00:00 20.2 9 Sur 17 Sur 0 1010.8 1.1 82
2019-06-24 08:00:00 19.6 9 Sur 17 Sudoeste 0 1010.1 0.5 88
2019-06-24 07:00:00 19.6 11 Sudoeste 22 Sudoeste 0 1009.9 0.4 89
2019-06-24 06:00:00 19.5 13 Sudoeste 22 Sudoeste 0 1009.7 -0.1 90
2019-06-24 05:00:00 19.6 16 Sudoeste 24 Sudoeste 0 1009.6 -0.4 87
2019-06-24 04:00:00 19.5 17 Sur 24 Sur 0 1009.5 -0.4 85
2019-06-24 03:00:00 20.2 13 Sur 18 Sudoeste 0 1009.8 0.2 77
2019-06-24 02:00:00 21.3 10 Sur 18 Sur 0 1010 1.1 59
2019-06-24 01:00:00 22.3 11 Sur 22 Sudoeste 0 1009.9 2 51
2019-06-24 00:00:00 23.3 16 Sudoeste 21 Sudoeste 0 1009.6 2 52
2019-06-23 23:00:00 24.1 16 Sudoeste 24 Sudoeste 0 1008.9 2 53
2019-06-23 22:00:00 26.1 19 Sudoeste 30 Sudoeste 0 1007.9 1.1 46
2019-06-23 21:00:00 27.8 21 Sudoeste 35 Sudoeste 0 1007.6 0.4 49
2019-06-23 20:00:00 29.6 26 Sudoeste 33 Sudoeste 0 1006.9 -0.8 43
2019-06-23 19:00:00 31.1 17 Sudoeste 30 Sudoeste 0 1006.8 -1.4 39
2019-06-23 18:00:00 32.6 14 Sudoeste 28 Oeste 0 1007.2 -1.5 33
2019-06-23 17:00:00 32.3 9 Sudoeste 26 Sudoeste 0 1007.7 -1.5 29
2019-06-23 16:00:00 32.2 13 Sudoeste 30 Sudoeste 0 1008.2 -1.7 30
2019-06-23 15:00:00 30.9 14 Sudoeste 28 Oeste 0 1008.7 -1.5 32
2019-06-23 14:00:00 29.6 10 Oeste 21 Oeste 0 1009.2 -1.3 40
2019-06-23 13:00:00 28 8 Oeste 21 Oeste 0 1009.9 -0.5 47
2019-06-23 12:00:00 26.2 10 Oeste 22 Norte 0 1010.2 0 49
2019-06-23 11:00:00 24.3 12 Noroeste 21 Noroeste 0 1010.5 0.6 52
2019-06-23 10:00:00 22.9 8 Oeste 15 Noroeste 0 1010.4 0.5 56
2019-06-23 09:00:00 21.6 4 Sur 8 Sur 0 1010.2 0.4 64
2019-06-23 08:00:00 18 7 Sudeste 9 Sudeste 0 1009.9 0.6 73
2019-06-23 07:00:00 16.4 6 Sudeste 8 Sudeste 0 1009.9 0.2 80
2019-06-23 06:00:00 16.9 5 Sudeste -- -- 0 1009.8 -0.2 76
2019-06-23 05:00:00 -- 8 Sudeste 9 Sudeste 0 1009.3 -0.9 --
2019-06-23 04:00:00 19.2 6 Sudoeste 11 Sudoeste 0 1009.7 -0.6 71
2019-06-23 03:00:00 19.7 13 Sur 21 Sur 0 1010 0.1 67
2019-06-23 02:00:00 20.3 12 Sur 21 Sudoeste 0 1010.2 0.9 61
2019-06-23 01:00:00 21.1 14 Sudoeste 26 Sudoeste 0 1010.3 1.7 59
2019-06-23 00:00:00 22.3 19 Sudoeste 30 Sudoeste 0 1009.9 1.8 60
2019-06-22 23:00:00 24.4 15 Sudoeste 28 Sudoeste 0 1009.3 1.5 48
2019-06-22 22:00:00 26.3 21 Sudoeste 28 Sudoeste 0 1008.6 0.9 42
2019-06-22 21:00:00 28.9 20 Sudoeste 35 Sudoeste 0 1008.1 0 35
2019-06-22 20:00:00 31 24 Sudoeste 35 Sudoeste 0 1007.8 -0.5 31
2019-06-22 19:00:00 32 27 Sudoeste 39 Sudoeste 0 1007.7 -1.2 30
2019-06-22 18:00:00 33.6 17 Sudoeste 30 Sudoeste 0 1008.1 -1.5 28
2019-06-22 17:00:00 34 14 Sudoeste 28 Sudoeste 0 1008.3 -2.1 19
2019-06-22 16:00:00 33.4 13 Sudoeste 26 Sudoeste 0 1008.9 -2.2 20
2019-06-22 15:00:00 32.3 12 Oeste 26 Oeste 0 1009.6 -1.8 26
2019-06-22 14:00:00 31.1 10 Sudoeste 18 Oeste 0 1010.4 -1.3 28
2019-06-22 13:00:00 29.1 9 Oeste 21 Oeste 0 1011.1 -0.8 34
2019-06-22 12:00:00 27.3 7 Oeste 17 Oeste 0 1011.4 -0.1 39
2019-06-22 11:00:00 25 6 Oeste 15 Oeste 0 1011.7 0.6 48
2019-06-22 10:00:00 22.7 9 Sudoeste 15 Sudoeste 0 1011.9 1.5 55
2019-06-22 09:00:00 21 6 Sur 11 Sur 0 1011.5 1.3 60
2019-06-22 08:00:00 17.5 4 Sudeste 9 Sudeste 0 1011.1 0.9 73
2019-06-22 07:00:00 15.7 5 Sudeste 9 Sudeste 0 1010.4 -0.3 78
2019-06-22 06:00:00 16.1 5 Sudeste -- -- 0 1010.2 -0.5 76
2019-06-22 05:00:00 16.7 4 Este 9 Este 0 1010.2 -0.6 74
2019-06-22 04:00:00 18.3 2 Nordeste 8 Nordeste 0 1010.7 -0.2 69
2019-06-22 03:00:00 19.2 4 Sur 13 Sur 0 1010.7 -0.1 64
2019-06-22 02:00:00 19.7 10 Sur 17 Sur 0 1010.8 0.5 63
2019-06-22 01:00:00 20.8 11 Sur 22 Sur 0 1010.9 1.3 62
2019-06-22 00:00:00 21.8 13 Sur 24 Sur 0 1010.8 1.6 59
2019-06-21 23:00:00 23.2 17 Sur 30 Sur 0 1010.3 1.2 52
2019-06-21 22:00:00 25.4 16 Sudoeste 30 Sudoeste 0 1009.6 0.6 44
2019-06-21 21:00:00 28.2 19 Sudoeste 35 Sudoeste 0 1009.2 0 36
2019-06-21 20:00:00 30 24 Sudoeste 33 Sudoeste 0 1009.1 -0.7 31
2019-06-21 19:00:00 31.8 16 Sudoeste 33 Sudoeste 0 1009 -1.4 26
2019-06-21 18:00:00 32.3 7 Oeste 22 Noroeste 0 1009.2 -1.7 20
2019-06-21 17:00:00 31.8 10 Oeste 26 Oeste 0 1009.8 -2.1 19
2019-06-21 16:00:00 31 9 Noroeste 22 Oeste 0 1010.4 -2 23
2019-06-21 15:00:00 29.2 6 Norte 24 Norte 0 1010.9 -1.7 27
2019-06-21 14:00:00 27.4 9 Oeste 18 Oeste 0 1011.9 -1 31
2019-06-21 13:00:00 26.6 9 Oeste 17 Oeste 0 1012.4 -0.6 35
2019-06-21 12:00:00 24.9 8 Sudoeste 15 Sudoeste 0 1012.6 -0.2 42
2019-06-21 11:00:00 22.8 5 Norte 18 Nordeste 0 1012.9 0.5 48
2019-06-21 10:00:00 21.3 13 Nordeste 26 Nordeste 0 1013 1.1 53
2019-06-21 09:00:00 19.8 9 Nordeste 17 Nordeste 0 1012.8 1.2 61
2019-06-21 08:00:00 17 0 Calma 5 Sudeste 0 1012.4 0.9 78
2019-06-21 07:00:00 15.3 4 Sur 9 Sur 0 1011.9 0.4 82
2019-06-21 06:00:00 15 6 Sur 9 Sur 0 1011.6 0.2 85
2019-06-21 05:00:00 16.4 4 Sudeste 5 Sudeste 0 1011.5 0.3 81
2019-06-21 04:00:00 17.7 5 Sur 11 Sur 0 1011.5 0.2 78
2019-06-21 03:00:00 18.6 5 Sur 11 Sur 0 1011.4 0.6 74
2019-06-21 02:00:00 19.7 5 Sur 15 Sur 0 1011.2 1 70
2019-06-21 01:00:00 20 10 Sur 24 Sudoeste 0 1011.3 1.8 71
2019-06-21 00:00:00 20.6 17 Sudoeste 26 Sudoeste 0 1010.8 1.2 67
2019-06-20 23:00:00 21.6 15 Sur 30 Sudoeste 0 1010.2 0.7 60
2019-06-20 22:00:00 23 15 Sudoeste 35 Sudoeste 0 1009.5 0.2 54
2019-06-20 21:00:00 24.6 22 Sudoeste 39 Sudoeste 0 1009.6 0 47
2019-06-20 20:00:00 25.5 27 Sudoeste 42 Sudoeste 0 1009.5 -0.2 44
2019-06-20 19:00:00 26.4 31 Sudoeste 45 Sudoeste 0 1009.3 -0.8 43
2019-06-20 18:00:00 27.7 29 Sudoeste 45 Sudoeste 0 1009.6 -1.3 41
2019-06-20 17:00:00 27.9 26 Sudoeste 41 Sudoeste 0 1009.7 -1.8 42
2019-06-20 16:00:00 28.4 25 Sudoeste 39 Sudoeste 0 1010.1 -1.6 39
2019-06-20 15:00:00 27.9 18 Sudoeste 35 Sudoeste 0 1010.9 -0.8 40
2019-06-20 14:00:00 27.2 18 Sudoeste 37 Sudoeste 0 1011.5 -0.4 39
2019-06-20 13:00:00 26.3 18 Sudoeste 32 Sudoeste 0 1011.7 -0.3 42
2019-06-20 12:00:00 25.1 14 Sur 28 Sudoeste 0 1011.7 -0.2 46
2019-06-20 11:00:00 23.7 11 Sudoeste 18 Sudoeste 0 1011.9 0.3 54
2019-06-20 10:00:00 21.5 11 Sudoeste 17 Sudoeste 0 1012 0.5 63
2019-06-20 09:00:00 20.1 8 Sur 11 Sur 0 1011.9 0.5 71
2019-06-20 08:00:00 18.4 5 Sudeste 8 Sudeste 0 1011.6 0.5 81
2019-06-20 07:00:00 17.5 4 Sur 9 Sudoeste 0 1011.5 0.3 80
2019-06-20 06:00:00 18 7 Sur 13 Sur 0 1011.4 -0.1 81
2019-06-20 05:00:00 18.2 9 Sur 15 Sudoeste 0 1011.1 -0.7 82
2019-06-20 04:00:00 18.5 10 Sudoeste 21 Sudoeste 0 1011.2 -0.7 83
2019-06-20 03:00:00 18.9 12 Sudoeste 22 Sur 0 1011.5 -0.6 83
2019-06-20 02:00:00 19.4 14 Sudoeste 24 Sudoeste 0 1011.8 0.2 83
2019-06-20 01:00:00 19.7 18 Sudoeste 30 Sudoeste 0 1011.9 0.8 82
2019-06-20 00:00:00 20.4 15 Sudoeste 28 Sudoeste 0 1012.1 1.4 75
2019-06-19 23:00:00 21.5 19 Sudoeste 32 Sudoeste 0 1011.6 1.4 68
2019-06-19 22:00:00 22.9 25 Sudoeste 37 Sudoeste 0 1011.1 1.1 61
2019-06-19 21:00:00 25.2 27 Sudoeste 39 Sudoeste 0 1010.7 0.3 53
2019-06-19 20:00:00 27.1 31 Sudoeste 42 Sudoeste 0 1010.2 -0.6 47
2019-06-19 19:00:00 28.8 26 Sudoeste 42 Sudoeste 0 1010 -1.5 42
2019-06-19 18:00:00 30.3 15 Sudoeste 30 Sudoeste 0 1010.4 -1.9 35
2019-06-19 17:00:00 30.7 12 Oeste 28 Oeste 0 1010.8 -2.4 31
2019-06-19 16:00:00 29.9 14 Sudoeste 24 Sudoeste 0 1011.5 -2.2 32
2019-06-19 15:00:00 28.7 10 Oeste 24 Oeste 0 1012.3 -1.5 37
2019-06-19 14:00:00 27.1 12 Oeste 32 Oeste 0 1013.2 -0.6 42
2019-06-19 13:00:00 25.9 10 Oeste 21 Noroeste 0 1013.7 -0.2 47
2019-06-19 12:00:00 24.2 11 Norte 22 Nordeste 0 1013.8 -0.1 56
2019-06-19 11:00:00 22.5 9 Norte 32 Norte 0 1013.8 0.3 64
2019-06-19 10:00:00 21 8 Noroeste 30 Norte 0 1013.9 0.7 70
2019-06-19 09:00:00 19.4 5 Norte 18 Noroeste 0 1013.9 0.8 77
2019-06-19 08:00:00 18.7 9 Noroeste 21 Noroeste 0 1013.5 0.4 81
2019-06-19 07:00:00 18.4 8 Oeste 13 Sudoeste 0 1013.2 0.1 83
2019-06-19 06:00:00 18.4 11 Sudoeste 18 Sudoeste 0 1013.1 -0.3 84
2019-06-19 05:00:00 18.3 12 Sudoeste 18 Sudoeste 0 1013.1 -0.3 85
2019-06-19 04:00:00 18.5 11 Sudoeste 18 Sudoeste 0 1013.1 -0.3 86
2019-06-19 03:00:00 18.6 12 Sudoeste 18 Sudoeste 0 1013.4 -0.1 86
2019-06-19 02:00:00 19 13 Sudoeste 22 Sudoeste 0 1013.4 0.3 85
2019-06-19 01:00:00 19.5 18 Sudoeste 26 Sudoeste 0 1013.4 0.9 82
2019-06-19 00:00:00 20.3 17 Sudoeste 28 Sudoeste 0 1013.5 1.2 76
2019-06-18 23:00:00 21.4 17 Sudoeste 28 Oeste 0 1013.1 0.9 70
2019-06-18 22:00:00 22.5 18 Oeste 28 Oeste 0 1012.5 0.8 63
2019-06-18 21:00:00 24.6 19 Oeste 32 Oeste 0 1012.3 0.3 55
2019-06-18 20:00:00 25.7 25 Oeste 39 Oeste 0 1012.2 0.2 51
2019-06-18 19:00:00 27.5 21 Oeste 33 Sudoeste 0 1011.7 -0.7 44
2019-06-18 18:00:00 27.4 19 Sudoeste 37 Oeste 0 1012 -0.7 44
2019-06-18 17:00:00 27.8 20 Oeste 37 Oeste 0 1012 -1.2 42
2019-06-18 16:00:00 27.3 21 Sudoeste 39 Sudoeste 0 1012.4 -1.2 44
2019-06-18 15:00:00 26.6 19 Sudoeste 35 Sudoeste 0 1012.7 -1.1 45
2019-06-18 14:00:00 25.3 15 Sudoeste 35 Sudoeste 0 1013.2 -0.3 46
2019-06-18 13:00:00 24.3 18 Sudoeste 32 Oeste 0 1013.6 -0.2 47
2019-06-18 12:00:00 22.8 15 Sudoeste 30 Sudoeste 0 1013.8 0.3 53
2019-06-18 11:00:00 21.3 14 Sudoeste 24 Sudoeste 0 1013.5 0.6 59
2019-06-18 10:00:00 19.3 15 Oeste 24 Oeste 0 1013.8 1.4 72
2019-06-18 09:00:00 17.3 11 Sudoeste 21 Sudoeste 0 1013.5 1.5 84
2019-06-18 08:00:00 15.7 11 Sur 15 Sur 0 1012.9 1 90
2019-06-18 07:00:00 14.9 13 Sur 18 Sur 0 1012.4 0.5 93
2019-06-18 06:00:00 15.2 13 Sur 18 Sur 0 1012 0 92
2019-06-18 05:00:00 15.7 10 Sur 18 Sudoeste 0 1011.9 0 89
2019-06-18 04:00:00 15.9 12 Sudoeste 24 Sudoeste 0 1011.9 -0.2 86
2019-06-18 03:00:00 16.6 16 Sudoeste 24 Sudoeste 0 1012 0.3 79
2019-06-18 02:00:00 17.8 14 Sudoeste 22 Sudoeste 0 1011.9 0.6 79
2019-06-18 01:00:00 19.1 14 Sur 22 Sudoeste 0 1012.1 1.6 66
2019-06-18 00:00:00 21 11 Sur 22 Sudoeste 0 1011.7 1.4 52
2019-06-17 23:00:00 22.7 15 Sudoeste 24 Sudoeste 0 1011.3 1.1 42
2019-06-17 22:00:00 24.2 17 Sudoeste 26 Sudoeste 0 1010.5 0.2 42
2019-06-17 21:00:00 27.8 20 Sudoeste 30 Oeste 0 1010.3 -0.1 29
2019-06-17 20:00:00 29.2 20 Sudoeste 35 Oeste 0 1010.2 -0.7 30
2019-06-17 19:00:00 30.1 24 Sudoeste 33 Sudoeste 0 1010.3 -1.2 30
2019-06-17 18:00:00 30.5 19 Sudoeste 33 Sudoeste 0 1010.4 -1.9 29
2019-06-17 17:00:00 30.9 20 Oeste 35 Oeste 0 1010.9 -2.2 27
2019-06-17 16:00:00 30.1 17 Sudoeste 33 Oeste 0 1011.5 -2 25
2019-06-17 15:00:00 29.7 15 Oeste 28 Oeste 0 1012.3 -1.6 27
2019-06-17 14:00:00 28.7 10 Sudoeste 18 Sudoeste 0 1013.1 -1.3 26
2019-06-17 13:00:00 27 7 Sur 21 Sur 0 1013.5 -1.3 31
2019-06-17 12:00:00 25.2 6 Sudoeste 22 Sur 0 1013.9 -0.6 39
2019-06-17 11:00:00 23.1 5 Oeste 11 Oeste 0 1014.4 0 48
2019-06-17 10:00:00 20.8 5 Noroeste 9 Noroeste 0 1014.8 0.6 60
2019-06-17 09:00:00 18.8 3 Nordeste 5 Este 0 1014.5 0.3 67
2019-06-17 08:00:00 15.8 4 Este 8 Este 0 1014.4 0.3 78
2019-06-17 07:00:00 13.7 5 Este 8 Este 0 1014.2 -0.2 86
2019-06-17 06:00:00 14.1 -- -- -- -- 0 1014.2 -0.3 88
2019-06-17 05:00:00 15.2 6 Sur 8 Sur 0 1014.1 -0.6 85
2019-06-17 04:00:00 15.9 5 Este 17 Sur 0 1014.4 -0.6 82
2019-06-17 03:00:00 17.4 12 Sur 18 Sur 0 1014.5 -0.4 79
2019-06-17 02:00:00 18 12 Sur 21 Sudoeste 0 1014.7 0.3 74
2019-06-17 01:00:00 19.3 15 Sudoeste 22 Sudoeste 0 1015 1.6 64
2019-06-17 00:00:00 20.7 13 Sudoeste 21 Sudoeste 0 1014.9 1.9 60
2019-06-16 23:00:00 22.6 14 Sudoeste 22 Sudoeste 0 1014.4 1.8 50
2019-06-16 22:00:00 25 14 Sudoeste 26 Sudoeste 0 1013.4 0.7 33
2019-06-16 21:00:00 27.1 19 Sudoeste 30 Sudoeste 0 1013 0.4 29
2019-06-16 20:00:00 28.8 22 Sudoeste 33 Sudoeste 0 1012.6 -0.2 28
2019-06-16 19:00:00 29.5 21 Sudoeste 37 Sudoeste 0 1012.7 -0.2 29
2019-06-16 18:00:00 29.4 20 Sudoeste 35 Sudoeste 0 1012.6 -1 31
2019-06-16 17:00:00 30 19 Sudoeste 33 Oeste 0 1012.8 -1.4 30
2019-06-16 16:00:00 29.8 13 Sudoeste 32 Sudoeste 0 1012.9 -1.3 26
2019-06-16 15:00:00 28.2 17 Sudoeste 28 Oeste 0 1013.6 -0.2 34
2019-06-16 14:00:00 26.4 14 Sudoeste 24 Oeste 0 1014.2 0.3 36
2019-06-16 13:00:00 24.9 10 Sudoeste 21 Sudoeste 0 1014.2 0 42
2019-06-16 12:00:00 24 3 Oeste 9 Sudoeste 0 1013.8 0.5 43
2019-06-16 11:00:00 23.2 4 Este 9 Este 0 1013.9 0.9 47
2019-06-16 10:00:00 21.4 3 Sudeste 8 Sudeste 0 1014.2 1.5 53
2019-06-16 09:00:00 18.3 3 Este 5 Sudeste 0 1013.3 1.1 64
2019-06-16 08:00:00 15.8 3 Este -- -- 0 1013 0.7 74
2019-06-16 07:00:00 14.9 2 Este 5 Nordeste 0 1012.7 0.2 76
2019-06-16 06:00:00 14.5 4 Este -- -- 0 1012.2 -0.6 78
2019-06-16 05:00:00 14.8 5 Este 8 Este 0 1012.3 -0.7 77
2019-06-16 04:00:00 15.9 0 Calma 8 Sur 0 1012.5 -1 73
2019-06-16 03:00:00 16.6 3 Sudeste 17 Sur 0 1012.8 -0.8 69
2019-06-16 02:00:00 17.5 13 Sur 17 Sur 0 1013 -0.5 68
2019-06-16 01:00:00 18.4 9 Sur 15 Sur 0 1013.5 0.5 60
2019-06-16 00:00:00 20.6 10 Sur 21 Sur 0 1013.6 1.2 50